ěÝzenÝ letovÚho provozu ╚eskÚ republiky
Letiste: LKLN Aktualizace: 26.11.2022 19:31:31  UTC
 METAR LKLN 26.11. 19:30 RRA
METAR LKLN 261930Z AUTO VRB02KT 7000 SCT039 BKN047 02/01 Q1031=